Time;durP1;ratioP1;P1;durP2;ratioP2;P2;SDS_P1;SDS_P2;PMS_P1;PMS_P2;Temp;Humidity;BMP_temperature;BMP_pressure;BME280_temperature;BME280_humidity;BME280_pressure;Samples;Min_cycle;Max_cycle;Signal;HPM_P1;HPM_P2
2023/05/14 00:02:08;;;;;;;11.80;3.47;;;16.10;99.90;;;16.49;71.12;100707.19;5027877;28;20639;-66
2023/05/14 00:04:35;;;;;;;3.87;3.57;;;16.10;99.90;;;16.49;71.19;100707.19;5024416;28;20665;-67
2023/05/14 00:07:02;;;;;;;3.23;3.00;;;16.10;99.90;;;16.46;72.00;100712.75;5017931;28;20629;-68
2023/05/14 00:09:29;;;;;;;3.50;3.20;;;16.10;99.90;;;16.43;71.77;100709.59;5030863;28;21482;-66
2023/05/14 00:11:56;;;;;;;2.80;2.60;;;16.00;99.90;;;16.42;71.85;100698.22;5023596;28;21172;-66
2023/05/14 00:14:24;;;;;;;3.17;2.97;;;16.10;99.90;;;16.40;72.07;100699.34;5026644;28;20621;-67
2023/05/14 00:16:51;;;;;;;2.97;2.70;;;16.00;99.90;;;16.39;71.73;100689.78;5021212;28;20709;-68
2023/05/14 00:19:18;;;;;;;2.83;2.60;;;16.00;99.90;;;16.38;71.61;100696.00;5030066;28;20698;-66
2023/05/14 00:21:47;;;;;;;3.03;2.83;;;16.00;99.90;;;16.37;70.90;100697.84;5015405;28;20772;-68
2023/05/14 00:24:14;;;;;;;3.23;3.03;;;16.00;99.90;;;16.38;70.62;100694.22;5028016;28;21239;-66
2023/05/14 00:26:40;;;;;;;3.70;3.40;;;16.00;99.90;;;16.40;70.93;100697.53;5030894;28;20611;-66
2023/05/14 00:29:08;;;;;;;3.60;3.00;;;16.00;99.90;;;16.37;71.65;100689.94;5021443;28;20663;-66
2023/05/14 00:31:35;;;;;;;4.37;3.40;;;16.00;99.90;;;16.31;72.27;100687.91;5041083;28;20608;-67
2023/05/14 00:34:02;;;;;;;3.93;3.47;;;15.90;99.90;;;16.23;73.10;100685.97;5020433;28;21254;-67
2023/05/14 00:36:30;;;;;;;3.53;3.30;;;15.90;99.90;;;16.19;72.83;100686.41;5026240;28;21233;-67
2023/05/14 00:38:57;;;;;;;3.47;3.23;;;15.80;99.90;;;16.16;73.54;100690.16;5011735;28;20649;-67
2023/05/14 00:41:23;;;;;;;3.80;3.10;;;15.80;99.90;;;16.16;73.71;100684.06;5012500;28;21204;-66
2023/05/14 00:43:50;;;;;;;4.30;3.27;;;15.80;99.90;;;16.16;74.17;100689.34;5013678;28;20711;-67
2023/05/14 00:46:17;;;;;;;4.10;3.33;;;15.80;99.90;;;16.07;74.41;100685.78;5026093;28;20651;-68
2023/05/14 00:48:45;;;;;;;3.50;3.17;;;15.70;99.90;;;16.04;74.51;100683.41;5030166;28;21291;-67
2023/05/14 00:51:12;;;;;;;4.27;3.53;;;15.70;99.90;;;16.02;74.84;100685.38;5028829;28;20640;-67
2023/05/14 00:53:39;;;;;;;4.60;3.70;;;15.70;99.90;;;15.95;74.56;100676.38;5031799;28;20622;-67
2023/05/14 00:56:07;;;;;;;4.33;3.80;;;15.60;99.90;;;15.90;74.80;100678.63;5017642;28;20629;-67
2023/05/14 00:58:34;;;;;;;3.50;3.20;;;;;;;15.83;75.06;100677.53;5012261;28;20634;-67
2023/05/14 01:01:01;;;;;;;4.20;3.50;;;15.50;99.90;;;15.77;75.07;100672.84;5014212;28;20653;-67
2023/05/14 01:03:30;;;;;;;3.80;3.50;;;15.40;99.90;;;15.72;75.07;100669.78;5025518;28;20647;-68
2023/05/14 01:06:16;;;;;;;3.00;2.80;;;15.40;99.90;;;15.66;75.09;100667.75;5038343;28;20593;-67
2023/05/14 01:09:05;;;;;;;3.70;3.40;;;15.30;99.90;;;15.63;75.69;100668.00;5010375;28;20649;-66
2023/05/14 01:12:05;;;;;;;3.33;3.03;;;15.30;99.90;;;15.60;75.70;100664.84;5019980;28;20617;-69
2023/05/14 01:14:58;;;;;;;3.97;3.47;;;15.30;99.90;;;15.51;75.93;100662.09;5012040;28;20633;-66
2023/05/14 01:17:31;;;;;;;5.23;3.23;;;15.20;99.90;;;15.46;76.13;100658.25;5029046;28;20609;-67
2023/05/14 01:19:59;;;;;;;4.37;3.50;;;15.10;99.90;;;15.41;76.35;100650.75;5029431;28;20648;-66
2023/05/14 01:22:26;;;;;;;3.87;3.50;;;15.10;99.90;;;15.38;76.75;100652.78;5016112;28;20748;-66
2023/05/14 01:24:53;;;;;;;3.47;3.17;;;15.00;99.90;;;15.35;77.15;100661.78;5045462;28;21264;-66
2023/05/14 01:27:52;;;;;;;4.10;3.60;;;15.00;99.90;;;15.28;77.92;100658.06;5028771;28;21203;-67
2023/05/14 01:30:47;;;;;;;3.53;3.23;;;15.00;99.90;;;15.22;77.91;100661.28;5022259;28;20680;-67
2023/05/14 01:33:17;;;;;;;3.53;3.20;;;14.90;99.90;;;15.20;77.75;100660.59;5012032;28;20628;-67
2023/05/14 01:35:44;;;;;;;3.67;3.37;;;14.90;99.90;;;15.18;78.31;100669.56;5013727;28;20660;-66
2023/05/14 01:38:14;;;;;;;5.80;4.10;;;14.80;99.90;;;15.14;78.23;100666.38;5017187;28;20657;-66
2023/05/14 01:40:41;;;;;;;4.10;3.70;;;14.90;99.90;;;15.11;79.06;100668.44;5029872;28;20991;-68
2023/05/14 01:43:08;;;;;;;5.10;3.67;;;14.80;99.90;;;15.08;79.23;100672.19;5027525;28;20991;-65
2023/05/14 01:45:35;;;;;;;6.17;4.47;;;14.70;99.90;;;15.08;79.12;100671.34;5031385;28;20755;-67
2023/05/14 01:48:04;;;;;;;4.77;4.20;;;14.80;99.90;;;15.07;79.15;100670.53;5029446;28;20739;-67
2023/05/14 01:50:31;;;;;;;4.37;3.97;;;14.70;99.90;;;15.06;79.25;100671.50;5011954;28;20703;-68
2023/05/14 01:52:58;;;;;;;7.60;5.73;;;14.70;99.90;;;15.01;79.19;100663.22;5023176;28;20629;-66
2023/05/14 01:55:25;;;;;;;4.47;4.07;;;14.70;99.90;;;14.99;79.76;100665.13;5031332;28;20619;-66
2023/05/14 01:57:52;;;;;;;6.50;4.70;;;14.70;99.90;;;14.93;79.81;100662.22;5021723;28;20660;-67
2023/05/14 02:00:22;;;;;;;5.07;4.40;;;14.60;99.90;;;14.91;79.59;100659.72;5028340;28;21032;-66
2023/05/14 02:02:49;;;;;;;6.23;5.30;;;14.60;99.90;;;14.89;79.55;100666.06;5030014;28;20624;-68
2023/05/14 02:05:17;;;;;;;6.87;4.93;;;14.60;99.90;;;14.86;79.61;100659.31;5026926;28;20714;-67
2023/05/14 02:07:44;;;;;;;9.50;5.57;;;14.60;99.90;;;14.85;79.76;100656.81;5017555;28;20649;-67
2023/05/14 02:10:11;;;;;;;7.20;4.80;;;14.50;99.90;;;14.83;79.65;100669.25;5014343;28;21249;-64
2023/05/14 02:12:37;;;;;;;5.50;4.60;;;14.50;99.90;;;14.81;79.94;100665.94;5030451;28;21184;-68
2023/05/14 02:15:05;;;;;;;6.87;5.73;;;14.50;99.90;;;14.79;79.81;100663.44;5025792;28;20620;-66
2023/05/14 02:17:35;;;;;;;5.00;4.50;;;14.50;99.90;;;14.74;80.18;100653.34;5021021;28;20666;-67
2023/05/14 02:20:02;;;;;;;6.53;5.80;;;14.40;99.90;;;14.71;80.23;100666.75;5029080;28;20600;-69
2023/05/14 02:22:29;;;;;;;6.30;4.97;;;14.40;99.90;;;14.70;80.23;100651.13;5027110;28;20653;-67
2023/05/14 02:24:56;;;;;;;7.43;5.13;;;14.40;99.90;;;14.67;80.02;100659.28;5031160;28;20652;-67
2023/05/14 02:27:23;;;;;;;6.23;4.70;;;14.40;99.90;;;14.64;80.08;100662.19;5028667;28;20631;-67
2023/05/14 02:29:50;;;;;;;7.23;4.80;;;14.30;99.90;;;14.61;80.28;100652.78;5031135;28;20628;-64
2023/05/14 02:32:17;;;;;;;6.00;5.03;;;14.30;99.90;;;14.58;80.24;100647.81;5009855;28;21196;-67
2023/05/14 02:34:44;;;;;;;5.30;4.53;;;14.30;99.90;;;14.55;80.63;100652.47;5011244;28;20621;-67
2023/05/14 02:37:11;;;;;;;6.50;4.90;;;14.20;99.90;;;14.47;80.88;100652.31;5026356;28;20973;-66
2023/05/14 02:39:38;;;;;;;7.17;5.47;;;14.10;99.90;;;14.43;81.30;100656.19;5018099;28;20668;-67
2023/05/14 02:42:05;;;;;;;7.07;5.47;;;14.10;99.90;;;14.37;81.40;100656.72;5026802;28;20624;-66
2023/05/14 02:44:32;;;;;;;6.73;5.40;;;14.10;99.90;;;14.30;81.77;100653.81;5020191;28;20657;-67
2023/05/14 02:46:59;;;;;;;5.97;5.10;;;14.00;99.90;;;14.29;81.94;100653.94;5024975;28;20632;-66
2023/05/14 02:49:26;;;;;;;8.10;5.30;;;14.00;99.90;;;14.24;81.84;100651.69;5025729;28;20692;-67
2023/05/14 02:51:53;;;;;;;5.50;4.90;;;13.90;99.90;;;14.16;82.41;100643.63;5028412;28;20631;-67
2023/05/14 02:54:20;;;;;;;4.93;4.43;;;13.90;99.90;;;14.10;81.99;100644.16;5028473;28;20705;-66
2023/05/14 02:56:47;;;;;;;6.27;5.10;;;13.80;99.90;;;14.06;82.69;100648.00;5020393;28;20628;-67
2023/05/14 02:59:14;;;;;;;6.07;4.80;;;13.80;99.90;;;14.02;82.96;100642.22;5009945;28;20660;-67
2023/05/14 03:01:41;;;;;;;7.57;5.60;;;13.80;99.90;;;13.96;82.99;100645.38;5017245;28;20712;-67
2023/05/14 03:04:08;;;;;;;6.80;4.80;;;13.70;99.90;;;13.89;82.98;100653.88;5017714;28;20640;-66
2023/05/14 03:06:35;;;;;;;10.23;4.97;;;13.60;99.90;;;13.77;83.14;100637.41;5018707;28;20601;-67
2023/05/14 03:09:03;;;;;;;11.73;6.83;;;13.50;99.90;;;13.71;83.60;100645.78;5007728;28;20752;-66
2023/05/14 03:11:30;;;;;;;6.83;5.60;;;13.40;99.90;;;13.69;83.60;100645.06;5019935;28;20637;-66
2023/05/14 03:13:57;;;;;;;7.60;5.83;;;13.40;99.90;;;13.66;83.47;100650.59;5028778;28;20627;-67
2023/05/14 03:16:23;;;;;;;5.53;4.20;;;13.40;99.90;;;13.58;84.46;100642.53;5010941;28;20695;-67
2023/05/14 03:18:50;;;;;;;7.50;5.33;;;13.30;99.90;;;13.51;84.22;100645.78;5015003;28;21037;-67
2023/05/14 03:21:17;;;;;;;5.00;4.30;;;13.20;99.90;;;13.48;84.57;100646.88;5020592;28;20626;-67
2023/05/14 03:23:44;;;;;;;6.77;5.13;;;13.20;99.90;;;13.43;84.95;100645.59;5009438;28;20617;-67
2023/05/14 03:26:11;;;;;;;6.23;4.97;;;13.10;99.90;;;13.43;85.06;100638.59;5023952;28;21070;-68
2023/05/14 03:28:39;;;;;;;6.27;5.50;;;13.10;99.90;;;13.43;85.18;100637.75;5019857;28;20727;-67
2023/05/14 03:31:06;;;;;;;8.10;5.93;;;13.10;99.90;;;13.45;85.17;100636.66;5008960;28;20626;-66
2023/05/14 03:33:33;;;;;;;6.63;5.00;;;13.10;99.90;;;13.44;84.99;100640.22;5008924;28;21230;-66
2023/05/14 03:36:00;;;;;;;4.50;3.83;;;13.20;99.90;;;13.42;84.89;100639.53;5010512;28;20644;-67
2023/05/14 03:38:27;;;;;;;9.63;5.17;;;13.10;99.90;;;13.39;85.11;100641.59;5010968;28;20645;-66
2023/05/14 03:40:54;;;;;;;5.30;4.10;;;13.10;99.90;;;13.36;85.19;100634.81;5016049;28;20659;-67
2023/05/14 03:43:21;;;;;;;4.43;3.63;;;13.10;99.90;;;13.37;84.60;100638.25;5011032;28;20672;-66
2023/05/14 03:45:51;;;;;;;4.50;3.70;;;13.10;99.90;;;13.35;85.11;100635.78;5013400;28;20660;-67
2023/05/14 03:48:21;;;;;;;6.00;4.40;;;13.10;99.90;;;13.31;84.62;100644.81;5028784;28;21251;-68
2023/05/14 03:50:47;;;;;;;6.07;5.20;;;13.00;99.90;;;13.29;84.79;100641.50;5024442;28;20633;-66
2023/05/14 03:53:15;;;;;;;7.17;5.10;;;13.00;99.90;;;13.19;85.17;100643.22;5017988;28;20641;-66
2023/05/14 03:55:42;;;;;;;7.53;5.23;;;12.90;99.90;;;13.15;85.59;100652.31;5019437;28;20617;-67
2023/05/14 03:58:13;;;;;;;7.90;5.60;;;12.90;99.90;;;13.04;86.45;100653.19;5026105;28;20664;-67
2023/05/14 04:00:43;;;;;;;6.60;5.00;;;12.80;99.90;;;13.02;86.28;100649.00;5017157;28;20624;-67
2023/05/14 04:03:10;;;;;;;10.03;5.17;;;12.70;99.90;;;13.08;86.56;100651.13;5021976;28;21192;-66
2023/05/14 04:05:37;;;;;;;5.73;4.73;;;12.80;99.90;;;13.15;86.27;100649.69;5022550;28;20764;-67
2023/05/14 04:08:04;;;;;;;8.23;4.90;;;12.90;99.90;;;13.24;86.10;100641.06;5021717;28;20664;-66
2023/05/14 04:10:31;;;;;;;7.47;5.37;;;13.00;99.90;;;13.35;85.71;100650.66;5020023;28;20617;-66
2023/05/14 04:12:58;;;;;;;7.23;5.13;;;13.00;99.90;;;13.47;85.02;100653.09;5017841;28;20632;-66
2023/05/14 04:15:26;;;;;;;5.80;5.20;;;13.10;99.90;;;13.57;84.50;100650.50;5016144;28;20632;-66
2023/05/14 04:17:52;;;;;;;7.20;5.20;;;13.30;99.90;;;13.67;83.94;100652.22;5024916;28;20644;-68
2023/05/14 04:20:20;;;;;;;6.90;5.10;;;13.40;99.90;;;13.78;83.40;100654.78;5019543;28;20695;-66
2023/05/14 04:22:46;;;;;;;6.30;5.40;;;13.50;99.90;;;13.84;83.00;100654.25;5024239;28;20675;-68
2023/05/14 04:25:13;;;;;;;8.57;5.87;;;13.60;99.90;;;13.86;82.63;100647.09;5012124;28;20665;-67
2023/05/14 04:27:40;;;;;;;5.53;4.90;;;13.60;99.90;;;13.81;82.67;100648.44;5019653;28;21049;-67
2023/05/14 04:30:08;;;;;;;7.97;5.30;;;13.60;99.90;;;13.77;82.81;100640.03;5021723;28;20639;-67
2023/05/14 04:32:35;;;;;;;7.47;5.50;;;13.50;99.90;;;13.71;83.24;100648.41;5027917;28;20623;-67
2023/05/14 04:35:03;;;;;;;7.80;5.03;;;13.40;99.90;;;13.71;83.44;100655.44;5030092;28;20620;-67
2023/05/14 04:37:30;;;;;;;7.70;4.93;;;13.40;99.90;;;13.72;83.61;100647.44;5019987;28;20863;-66
2023/05/14 04:39:57;;;;;;;9.60;6.53;;;13.40;99.90;;;13.70;83.05;100645.91;5020511;28;21197;-66
2023/05/14 04:42:24;;;;;;;6.97;5.27;;;13.40;99.90;;;13.64;84.15;100646.44;5028810;28;20632;-66
2023/05/14 04:44:51;;;;;;;7.07;5.40;;;13.40;99.90;;;13.62;84.11;100643.94;5025218;28;20656;-67
2023/05/14 04:47:19;;;;;;;7.60;5.70;;;13.40;99.90;;;13.48;84.71;100639.00;5029962;28;20628;-65
2023/05/14 04:49:47;;;;;;;7.67;5.40;;;13.30;99.90;;;13.39;85.03;100644.19;5022302;28;20994;-66
2023/05/14 04:52:14;;;;;;;6.83;5.60;;;13.10;99.90;;;13.35;85.31;100646.25;5027750;28;21206;-67
2023/05/14 04:54:41;;;;;;;6.30;5.17;;;13.10;99.90;;;13.50;85.82;100647.56;5024310;28;20594;-66
2023/05/14 04:57:08;;;;;;;7.13;5.53;;;13.20;99.90;;;13.60;84.57;100651.09;5020575;28;20623;-67
2023/05/14 04:59:35;;;;;;;7.30;5.37;;;13.30;99.90;;;13.64;83.54;100651.66;5021451;28;20698;-66
2023/05/14 05:02:02;;;;;;;5.27;4.77;;;13.40;99.90;;;13.66;83.61;100655.81;5020813;28;20609;-66
2023/05/14 05:04:29;;;;;;;6.00;4.90;;;13.40;99.90;;;13.67;84.15;100661.91;5021758;28;21208;-66
2023/05/14 05:06:56;;;;;;;7.00;5.47;;;13.40;99.90;;;13.76;84.13;100666.34;5020034;28;20660;-67
2023/05/14 05:09:23;;;;;;;7.23;5.00;;;13.50;99.90;;;13.87;83.93;100663.66;5023937;28;20667;-66
2023/05/14 05:11:50;;;;;;;10.00;5.60;;;13.60;99.90;;;13.93;83.51;100663.97;5009618;28;20655;-66
2023/05/14 05:14:17;;;;;;;6.20;5.40;;;13.60;99.90;;;14.03;82.64;100659.59;5011761;28;20922;-66
2023/05/14 05:16:44;;;;;;;6.87;4.90;;;13.70;99.90;;;14.12;82.64;100662.41;5019484;28;20647;-66
2023/05/14 05:19:10;;;;;;;8.67;5.87;;;13.80;99.90;;;14.21;81.98;100666.84;5025160;28;20641;-67
2023/05/14 05:21:39;;;;;;;5.33;4.10;;;13.90;99.90;;;14.27;81.69;100666.34;5013392;28;21056;-66
2023/05/14 05:24:07;;;;;;;9.13;5.67;;;14.00;99.90;;;14.30;81.19;100671.34;5016309;28;20613;-67
2023/05/14 05:26:37;;;;;;;8.33;4.30;;;14.00;99.90;;;14.17;81.91;100679.41;5018963;28;20718;-68
2023/05/14 05:29:05;;;;;;;8.27;5.00;;;13.90;99.90;;;14.11;82.33;100673.84;5013672;28;21275;-67
2023/05/14 05:31:32;;;;;;;6.87;5.20;;;13.90;99.90;;;14.08;82.65;100682.81;5017071;28;20625;-67
2023/05/14 05:33:59;;;;;;;8.30;5.13;;;13.80;99.90;;;14.01;82.40;100677.25;5028542;28;20616;-67
2023/05/14 05:36:27;;;;;;;7.00;5.27;;;13.80;99.90;;;13.91;83.86;100684.25;5023040;28;20633;-67
2023/05/14 05:38:55;;;;;;;6.47;4.47;;;13.70;99.90;;;13.91;83.81;100684.25;5011729;28;20637;-66
2023/05/14 05:41:21;;;;;;;8.37;5.80;;;13.70;99.90;;;13.90;84.48;100680.00;5014951;28;20624;-67
2023/05/14 05:43:48;;;;;;;7.17;5.10;;;13.70;99.90;;;13.94;84.46;100678.75;5022298;28;20617;-67
2023/05/14 05:46:15;;;;;;;7.87;5.17;;;13.70;99.90;;;13.99;84.43;100673.13;5016667;28;21303;-66
2023/05/14 05:48:42;;;;;;;5.30;4.00;;;13.70;99.90;;;14.08;84.03;100677.56;5010839;28;20999;-67
2023/05/14 05:51:09;;;;;;;5.90;4.57;;;13.80;99.90;;;14.17;84.26;100678.56;5011481;28;20613;-67
2023/05/14 05:53:36;;;;;;;5.17;4.67;;;13.90;99.90;;;14.28;82.92;100678.47;5020540;28;21341;-67
2023/05/14 05:56:03;;;;;;;4.90;3.97;;;13.90;99.90;;;14.39;83.07;100681.06;5025869;28;20633;-67
2023/05/14 05:58:30;;;;;;;6.00;4.53;;;14.10;99.90;;;14.48;82.05;100678.44;5014947;28;20674;-66
2023/05/14 06:00:58;;;;;;;9.30;5.13;;;14.20;99.90;;;14.53;82.26;100670.16;5022060;28;20598;-66
2023/05/14 06:03:25;;;;;;;6.73;5.07;;;14.20;99.90;;;14.64;82.06;100675.31;5020922;28;20641;-66
2023/05/14 06:05:52;;;;;;;8.13;4.80;;;14.30;99.90;;;14.74;81.29;100676.16;5018919;28;21078;-66
2023/05/14 06:08:19;;;;;;;4.33;4.03;;;14.40;99.90;;;14.82;81.16;100678.13;5019306;28;20637;-67
2023/05/14 06:10:46;;;;;;;5.97;4.47;;;14.50;99.90;;;14.92;80.62;100685.03;5025679;28;20644;-65
2023/05/14 06:13:13;;;;;;;4.43;4.00;;;14.60;99.90;;;15.05;80.85;100682.97;5019995;28;20597;-68
2023/05/14 06:15:40;;;;;;;4.80;3.77;;;14.70;99.90;;;15.14;79.92;100681.31;5016575;28;20634;-67
2023/05/14 06:18:07;;;;;;;3.60;3.30;;;14.80;99.90;;;15.20;79.82;100676.34;5017951;28;20651;-67
2023/05/14 06:20:34;;;;;;;5.80;4.87;;;14.90;99.90;;;15.27;79.36;100672.19;5028435;28;20736;-69
2023/05/14 06:23:01;;;;;;;7.00;5.30;;;15.00;99.90;;;15.34;79.22;100680.34;5025583;28;21008;-68
2023/05/14 06:25:28;;;;;;;6.70;5.07;;;15.00;99.90;;;15.29;79.17;100672.06;5031195;28;21223;-66
2023/05/14 06:27:55;;;;;;;5.03;4.47;;;15.00;99.90;;;15.31;79.27;100673.56;5021344;28;20712;-67
2023/05/14 06:30:21;;;;;;;5.47;4.30;;;15.00;99.90;;;15.33;79.27;100679.50;5027866;28;20620;-69
2023/05/14 06:32:49;;;;;;;7.23;6.17;;;15.00;99.90;;;15.30;79.73;100674.53;5024834;28;20652;-68
2023/05/14 06:35:17;;;;;;;5.80;3.90;;;15.00;99.90;;;15.42;79.46;100677.84;5029664;28;20621;-68
2023/05/14 06:37:44;;;;;;;7.33;5.47;;;15.10;99.90;;;15.49;79.33;100668.47;5022848;28;20664;-68
2023/05/14 06:40:14;;;;;;;5.50;4.50;;;15.20;99.90;;;15.61;79.13;100671.78;5017092;28;20724;-67
2023/05/14 06:42:41;;;;;;;6.20;4.57;;;15.30;99.90;;;15.78;78.74;100671.84;5021864;28;20643;-68
2023/05/14 06:45:08;;;;;;;4.80;4.30;;;15.40;99.90;;;15.99;77.62;100677.75;5030563;28;20617;-69
2023/05/14 06:47:35;;;;;;;6.43;4.67;;;15.60;99.90;;;16.31;76.13;100669.47;5028945;28;21034;-68
2023/05/14 06:50:03;;;;;;;5.93;3.93;;;15.90;99.90;;;16.67;74.27;100670.41;5030182;28;21180;-68
2023/05/14 06:52:29;;;;;;;5.77;4.30;;;16.30;99.90;;;17.01;73.19;100666.94;5018435;28;20720;-67
2023/05/14 06:54:56;;;;;;;3.97;3.67;;;16.60;99.90;;;17.36;71.63;100670.53;5027191;28;20635;-69
2023/05/14 06:57:23;;;;;;;4.77;4.13;;;16.90;99.90;;;17.54;69.52;100661.69;5027349;28;20640;-69
2023/05/14 06:59:50;;;;;;;4.97;4.30;;;17.20;99.90;;;17.62;69.18;100667.00;5013648;28;20636;-68
2023/05/14 07:02:17;;;;;;;2.33;2.20;;;17.30;99.90;;;17.97;68.01;100666.09;5012305;28;20695;-68
2023/05/14 07:04:45;;;;;;;2.80;2.47;;;17.60;99.90;;;18.71;65.93;100665.41;5015904;28;20733;-68
2023/05/14 07:07:14;;;;;;;5.10;4.40;;;18.30;99.90;;;19.87;62.99;100661.47;5011633;28;21259;-69
2023/05/14 07:09:41;;;;;;;4.67;4.20;;;19.30;99.90;;;21.82;56.56;100659.28;5019930;28;20640;-69
2023/05/14 07:12:08;;;;;;;4.50;4.10;;;21.10;99.90;;;23.80;50.88;100656.81;5029542;28;20655;-69
2023/05/14 07:14:35;;;;;;;4.47;3.83;;;23.10;99.90;;;25.49;47.97;100663.00;5030073;28;20621;-69
2023/05/14 07:17:02;;;;;;;3.03;2.47;;;24.70;99.90;;;27.00;42.55;100671.38;5028630;28;20644;-69
2023/05/14 07:19:29;;;;;;;3.77;3.47;;;26.50;94.40;;;28.38;39.92;100669.94;5030260;28;20683;-71
2023/05/14 07:21:56;;;;;;;3.90;3.60;;;27.80;90.70;;;29.33;37.47;100662.84;5025926;28;21234;-73
2023/05/14 07:24:25;;;;;;;3.93;3.00;;;29.00;82.80;;;29.99;36.30;100657.13;5030121;28;20625;-71
2023/05/14 07:26:53;;;;;;;4.33;3.93;;;29.80;77.10;;;30.37;35.08;100659.28;5013716;28;20745;-74
2023/05/14 07:29:24;;;;;;;3.50;3.20;;;30.30;72.50;;;31.01;33.58;100658.09;5016306;28;20644;-65
2023/05/14 07:31:53;;;;;;;3.80;3.50;;;30.80;69.50;;;31.37;33.28;100661.16;5013264;28;20626;-66
2023/05/14 07:34:20;;;;;;;4.37;3.97;;;31.30;67.70;;;32.01;32.21;100643.53;5028590;28;21172;-66
2023/05/14 07:36:47;;;;;;;8.50;5.80;;;31.80;65.20;;;32.53;30.38;100646.63;5022659;28;21215;-64
2023/05/14 07:39:14;;;;;;;2.97;2.77;;;32.30;61.80;;;32.39;31.03;100639.94;5028560;28;21046;-68
2023/05/14 07:41:41;;;;;;;3.43;3.23;;;32.40;61.40;;;32.66;30.78;100637.31;5033225;28;20731;-66
2023/05/14 07:44:08;;;;;;;3.23;3.03;;;32.70;60.60;;;33.05;30.57;100633.41;5033215;28;20635;-66
2023/05/14 07:46:36;;;;;;;3.43;3.17;;;33.00;59.60;;;33.03;29.32;100637.44;5028138;28;21065;-68
2023/05/14 07:49:02;;;;;;;3.53;3.33;;;33.10;58.10;;;32.81;29.97;100634.75;5025979;28;20670;-65
2023/05/14 07:51:32;;;;;;;3.87;3.57;;;33.00;57.70;;;32.50;29.87;100627.44;5019455;28;20721;-68
2023/05/14 07:53:59;;;;;;;3.17;3.03;;;32.80;57.30;;;32.86;29.47;100624.78;5021764;28;20621;-65
2023/05/14 07:56:26;;;;;;;3.80;3.50;;;33.00;57.10;;;33.09;29.72;100623.69;5024290;28;20613;-67
2023/05/14 07:58:53;;;;;;;3.23;3.03;;;33.40;56.50;;;33.71;29.41;100631.19;5026669;28;20655;-64
2023/05/14 08:01:31;;;;;;;3.13;3.00;;;33.90;56.30;;;33.56;29.18;100621.09;5030607;28;21256;-67
2023/05/14 08:03:58;;;;;;;3.30;3.10;;;33.80;55.20;;;33.59;27.78;100612.44;5014580;28;20605;-67
2023/05/14 08:06:28;;;;;;;3.37;3.17;;;33.90;54.30;;;33.68;28.70;100608.16;5027653;28;20660;-67
2023/05/14 08:08:55;;;;;;;3.83;3.63;;;34.10;54.10;;;34.02;28.33;100614.84;5031318;28;20650;-71
2023/05/14 08:11:24;;;;;;;3.40;2.97;;;34.30;54.00;;;34.36;27.64;100615.25;5022603;28;20689;-66
2023/05/14 08:13:51;;;;;;;3.23;3.03;;;34.70;53.60;;;34.42;27.65;100618.75;5022351;28;20624;-69
2023/05/14 08:16:21;;;;;;;3.90;3.70;;;34.80;52.90;;;34.00;28.04;100608.03;5027102;28;21160;-71
2023/05/14 08:18:48;;;;;;;2.90;2.80;;;34.60;52.70;;;33.82;28.57;100612.00;5024934;28;20714;-70
2023/05/14 08:21:18;;;;;;;4.00;3.70;;;34.40;53.20;;;33.80;28.76;100605.25;5014668;28;20724;-68
2023/05/14 08:23:45;;;;;;;4.53;4.23;;;34.30;53.20;;;33.76;28.31;100604.94;5013314;28;21209;-68
2023/05/14 08:26:15;;;;;;;4.23;3.77;;;34.20;54.10;;;34.57;28.71;100608.00;5016378;28;20666;-68
2023/05/14 08:28:53;;;;;;;4.07;3.87;;;34.70;54.20;;;34.84;27.26;100603.16;5027359;28;21295;-68
2023/05/14 08:31:20;;;;;;;4.07;3.87;;;35.10;52.10;;;34.83;27.17;100602.34;5024975;28;21355;-71
2023/05/14 08:33:48;;;;;;;4.23;3.83;;;35.20;51.90;;;33.55;28.60;100601.34;5031025;28;20620;-71
2023/05/14 08:36:15;;;;;;;4.40;4.10;;;34.30;52.10;;;33.28;29.52;100592.47;5026257;28;20648;-69
2023/05/14 08:38:44;;;;;;;4.63;4.33;;;33.60;53.40;;;33.27;28.94;100592.72;5032235;28;20644;-68
2023/05/14 08:41:15;;;;;;;4.30;4.00;;;33.60;53.60;;;33.19;29.34;100596.72;5018957;28;21252;-71
2023/05/14 08:44:11;;;;;;;4.63;4.33;;;33.40;54.00;;;33.98;28.29;100591.25;5010289;28;20628;-69
2023/05/14 08:46:39;;;;;;;4.13;3.93;;;34.00;53.40;;;34.57;27.55;100589.03;5016427;28;20715;-67
2023/05/14 08:49:34;;;;;;;3.43;3.23;;;34.80;52.20;;;34.44;27.46;100594.97;5013929;28;20649;-68
2023/05/14 08:52:02;;;;;;;4.50;4.20;;;34.90;52.00;;;33.70;28.12;100591.66;5022492;28;20640;-69
2023/05/14 08:54:31;;;;;;;4.37;4.07;;;34.40;52.10;;;31.75;30.77;100581.38;5031556;28;20623;-68
2023/05/14 08:56:58;;;;;;;3.77;3.53;;;32.50;53.60;;;30.95;32.35;100586.34;5015705;28;20952;-69
2023/05/14 08:59:25;;;;;;;3.90;3.50;;;31.40;55.50;;;30.98;32.15;100578.59;5011391;28;20637;-65
2023/05/14 09:01:57;;;;;;;4.17;3.70;;;31.30;55.50;;;29.69;34.09;100578.44;5018994;28;20632;-68
2023/05/14 09:04:26;;;;;;;4.30;4.00;;;30.20;56.50;;;29.50;34.47;100574.25;5028590;28;20715;-67
2023/05/14 09:06:54;;;;;;;4.70;4.30;;;29.80;57.30;;;30.24;33.45;100571.53;5018525;28;21020;-67
2023/05/14 09:09:22;;;;;;;4.50;4.10;;;30.30;56.80;;;29.94;33.45;100579.03;5014964;28;20637;-70
2023/05/14 09:11:51;;;;;;;4.10;3.80;;;30.10;56.80;;;29.06;34.30;100556.81;5024058;28;20649;-70
2023/05/14 09:14:22;;;;;;;5.17;4.77;;;29.40;57.10;;;28.05;36.94;100564.03;5029219;28;20616;-69
2023/05/14 09:16:50;;;;;;;4.20;3.90;;;28.50;59.10;;;27.13;37.66;100559.59;5015407;28;20682;-70
2023/05/14 09:19:20;;;;;;;4.40;4.00;;;27.50;59.80;;;25.99;40.10;100561.53;5027420;28;20740;-67
2023/05/14 09:21:48;;;;;;;4.07;3.77;;;26.30;62.20;;;25.59;41.78;100559.19;5014783;28;20647;-69
2023/05/14 09:24:20;;;;;;;5.97;3.80;;;25.60;64.30;;;26.18;40.28;100562.50;5028714;28;20608;-69
2023/05/14 09:26:53;;;;;;;3.70;3.07;;;25.90;63.80;;;26.86;38.98;100558.19;5014524;28;20664;-69
2023/05/14 09:29:23;;;;;;;3.20;2.97;;;26.70;62.70;;;27.66;37.54;100559.97;5010627;28;20703;-68
2023/05/14 09:31:50;;;;;;;3.30;3.00;;;27.40;61.50;;;28.89;35.29;100563.91;5013045;28;21498;-68
2023/05/14 09:34:30;;;;;;;3.40;3.20;;;28.80;59.30;;;28.61;34.83;100548.44;5011003;28;21208;-65
2023/05/14 09:37:09;;;;;;;4.20;3.80;;;28.90;58.40;;;27.87;36.24;100553.31;5010445;28;21200;-68
2023/05/14 09:39:37;;;;;;;4.03;3.73;;;28.00;59.30;;;27.74;36.73;100554.28;4994775;28;21219;-67
2023/05/14 09:42:04;;;;;;;4.00;3.70;;;27.70;60.20;;;26.80;37.45;100545.69;5027788;28;20651;-67
2023/05/14 09:44:36;;;;;;;4.03;3.60;;;27.00;60.60;;;25.33;39.82;100554.69;5030231;28;20632;-65
2023/05/14 09:47:04;;;;;;;3.93;3.63;;;25.60;62.10;;;24.34;42.89;100545.75;5027278;28;20664;-65
2023/05/14 09:49:31;;;;;;;3.40;3.10;;;24.60;65.10;;;23.59;43.54;100551.16;5030114;28;20739;-68
2023/05/14 09:52:01;;;;;;;3.47;3.17;;;23.70;66.30;;;23.09;44.52;100546.88;5026456;28;20621;-66
2023/05/14 09:54:28;;;;;;;4.13;2.53;;;23.10;67.50;;;22.69;46.21;100552.06;5012527;28;20618;-68
2023/05/14 09:56:56;;;;;;;4.17;3.77;;;22.60;69.40;;;22.43;47.65;100552.59;5025916;28;20648;-68
2023/05/14 09:59:23;;;;;;;3.33;3.07;;;22.30;71.00;;;22.25;47.79;100553.00;5013138;28;20668;-68
2023/05/14 10:01:51;;;;;;;3.47;3.17;;;22.10;71.50;;;22.12;47.88;100552.03;5009854;28;20645;-68
2023/05/14 10:04:19;;;;;;;3.50;3.20;;;21.90;72.00;;;22.13;48.30;100556.31;5032690;28;20640;-67
2023/05/14 10:06:55;;;;;;;5.80;3.63;;;21.80;72.60;;;22.07;48.32;100549.09;5015646;28;20653;-68
2023/05/14 10:09:27;;;;;;;3.03;2.80;;;21.80;73.10;;;21.95;48.50;100562.06;5010845;28;20663;-68
2023/05/14 10:12:02;;;;;;;4.23;3.57;;;21.70;73.30;;;21.81;48.68;100559.34;5008553;28;20672;-66
2023/05/14 10:14:38;;;;;;;3.70;3.40;;;21.50;73.70;;;21.59;49.92;100556.63;5024340;28;21177;-71
2023/05/14 10:17:06;;;;;;;3.20;2.87;;;21.30;75.10;;;21.49;50.23;100556.06;5024355;28;20620;-67
2023/05/14 10:19:39;;;;;;;3.27;3.07;;;21.20;76.10;;;21.44;50.32;100563.78;5028403;28;20636;-68